createdAt,value
2022-12-01T00:00:07.248Z,19.40
2022-12-01T00:01:07.208Z,19.90
2022-12-01T00:02:07.278Z,21.30
2022-12-01T00:03:07.361Z,19.70
2022-12-01T00:04:07.112Z,21.20
2022-12-01T00:05:07.090Z,20.10
2022-12-01T00:06:07.056Z,20.20
2022-12-01T00:07:07.032Z,20.50
2022-12-01T00:08:07.054Z,21.00
2022-12-01T00:09:06.975Z,22.50
2022-12-01T00:10:06.940Z,21.40
2022-12-01T00:11:06.936Z,23.30
2022-12-01T00:12:06.886Z,23.00
2022-12-01T00:13:06.858Z,24.00
2022-12-01T00:14:06.828Z,24.60
2022-12-01T00:15:06.804Z,24.60
2022-12-01T00:16:06.850Z,23.50
2022-12-01T00:17:06.750Z,22.90
2022-12-01T00:18:06.715Z,26.10
2022-12-01T00:19:06.685Z,23.70
2022-12-01T00:20:06.658Z,25.80
2022-12-01T00:21:06.629Z,23.80
2022-12-01T00:22:06.600Z,24.40
2022-12-01T00:23:06.575Z,24.60
2022-12-01T00:24:06.548Z,25.50
2022-12-01T00:25:06.515Z,23.90
2022-12-01T00:26:06.489Z,24.00
2022-12-01T00:27:06.455Z,24.10
2022-12-01T00:28:06.431Z,24.90
2022-12-01T00:29:06.402Z,24.30
2022-12-01T00:30:06.375Z,25.60
2022-12-01T00:31:06.348Z,24.80
2022-12-01T00:32:06.364Z,25.10
2022-12-01T00:33:06.289Z,24.50
2022-12-01T00:34:11.028Z,24.20
2022-12-01T00:35:06.226Z,24.90
2022-12-01T00:36:06.196Z,25.60
2022-12-01T00:37:06.178Z,24.80
2022-12-01T00:38:06.138Z,23.40
2022-12-01T00:39:06.115Z,24.40
2022-12-01T00:40:06.088Z,25.20
2022-12-01T00:41:06.053Z,23.50
2022-12-01T00:42:11.602Z,24.20
2022-12-01T00:43:05.999Z,23.40
2022-12-01T00:44:05.972Z,23.70
2022-12-01T00:45:05.947Z,24.60
2022-12-01T00:46:05.966Z,24.50
2022-12-01T00:47:05.882Z,25.70
2022-12-01T00:48:05.882Z,24.00
2022-12-01T00:49:05.826Z,23.50
2022-12-01T00:50:05.807Z,24.90
2022-12-01T00:51:05.768Z,23.00
2022-12-01T00:52:05.740Z,23.70
2022-12-01T00:53:05.710Z,24.70
2022-12-01T00:54:05.686Z,25.00
2022-12-01T00:55:05.653Z,24.50
2022-12-01T00:56:05.629Z,25.10
2022-12-01T00:57:05.597Z,24.80
2022-12-01T00:58:05.569Z,24.20
2022-12-01T00:59:05.539Z,24.70
2022-12-01T01:00:05.513Z,25.50
2022-12-01T01:01:05.606Z,25.50
2022-12-01T01:02:05.530Z,26.30
2022-12-01T01:03:05.423Z,27.10
2022-12-01T01:04:05.416Z,27.00
2022-12-01T01:05:05.366Z,28.00
2022-12-01T01:06:05.339Z,28.70
2022-12-01T01:07:05.308Z,27.80
2022-12-01T01:08:05.377Z,28.40
2022-12-01T01:09:05.250Z,29.10
2022-12-01T01:10:05.223Z,27.00
2022-12-01T01:11:05.195Z,27.50
2022-12-01T01:12:05.173Z,27.90
2022-12-01T01:13:05.135Z,27.00
2022-12-01T01:14:05.109Z,29.00
2022-12-01T01:15:05.079Z,29.20
2022-12-01T01:16:05.055Z,29.20
2022-12-01T01:17:05.180Z,30.00
2022-12-01T01:18:04.992Z,28.20
2022-12-01T01:19:04.962Z,27.40
2022-12-01T01:20:04.952Z,27.60
2022-12-01T01:21:04.905Z,28.60
2022-12-01T01:22:04.879Z,26.40
2022-12-01T01:23:04.843Z,27.30
2022-12-01T01:24:04.817Z,26.60
2022-12-01T01:25:04.790Z,29.40
2022-12-01T01:26:04.762Z,27.50
2022-12-01T01:27:04.731Z,26.70
2022-12-01T01:28:04.703Z,28.90
2022-12-01T01:29:04.672Z,28.40
2022-12-01T01:30:04.645Z,26.90
2022-12-01T01:31:04.720Z,27.40
2022-12-01T01:32:04.586Z,28.10
2022-12-01T01:33:04.555Z,26.10
2022-12-01T01:34:04.528Z,25.00
2022-12-01T01:35:04.498Z,28.30
2022-12-01T01:36:04.503Z,27.20
2022-12-01T01:37:04.440Z,27.40
2022-12-01T01:38:04.414Z,27.40
2022-12-01T01:39:04.390Z,26.80
2022-12-01T01:40:04.353Z,26.00
2022-12-01T01:41:04.324Z,26.50
2022-12-01T01:42:04.299Z,24.50
2022-12-01T01:43:04.267Z,25.80
2022-12-01T01:44:04.241Z,24.30
2022-12-01T01:45:04.207Z,25.70
2022-12-01T01:46:04.207Z,25.80
2022-12-01T01:47:04.153Z,23.90
2022-12-01T01:48:04.123Z,24.10
2022-12-01T01:49:04.097Z,23.80
2022-12-01T01:50:04.068Z,24.30
2022-12-01T01:51:04.037Z,24.00
2022-12-01T01:52:04.025Z,25.30
2022-12-01T01:53:03.979Z,23.00
2022-12-01T01:54:03.954Z,22.70
2022-12-01T01:55:03.920Z,22.10
2022-12-01T01:56:03.899Z,22.80
2022-12-01T01:57:03.864Z,23.00
2022-12-01T01:58:03.835Z,21.90
2022-12-01T01:59:03.805Z,21.50
2022-12-01T02:00:03.781Z,22.90
2022-12-01T02:01:03.851Z,22.00
2022-12-01T02:02:03.768Z,21.60
2022-12-01T02:03:03.690Z,22.60
2022-12-01T02:04:03.663Z,21.80
2022-12-01T02:05:03.636Z,20.70
2022-12-01T02:06:05.126Z,21.70
2022-12-01T02:07:03.575Z,21.20
2022-12-01T02:08:03.610Z,20.90
2022-12-01T02:09:03.518Z,21.60
2022-12-01T02:10:03.490Z,21.90
2022-12-01T02:11:03.457Z,21.70
2022-12-01T02:12:03.436Z,22.20
2022-12-01T02:13:03.401Z,22.00
2022-12-01T02:14:03.375Z,21.90
2022-12-01T02:15:03.349Z,21.40
2022-12-01T02:16:03.316Z,20.60
2022-12-01T02:17:03.367Z,20.60
2022-12-01T02:18:03.259Z,20.90
2022-12-01T02:19:03.226Z,22.40
2022-12-01T02:20:03.201Z,21.10
2022-12-01T02:21:03.176Z,20.20
2022-12-01T02:22:03.146Z,21.50
2022-12-01T02:23:03.113Z,20.50
2022-12-01T02:24:03.111Z,21.00
2022-12-01T02:25:03.054Z,21.40
2022-12-01T02:26:03.031Z,20.80
2022-12-01T02:27:02.999Z,21.90
2022-12-01T02:28:02.970Z,21.10
2022-12-01T02:29:02.940Z,21.00
2022-12-01T02:30:02.924Z,19.60
2022-12-01T02:31:02.906Z,20.60
2022-12-01T02:32:02.854Z,22.30
2022-12-01T02:33:02.824Z,21.40
2022-12-01T02:34:02.801Z,22.20
2022-12-01T02:35:02.765Z,22.90
2022-12-01T02:36:02.739Z,20.80
2022-12-01T02:37:02.711Z,21.40
2022-12-01T02:38:02.678Z,21.30
2022-12-01T02:39:02.649Z,23.30
2022-12-01T02:40:02.642Z,23.10
2022-12-01T02:41:02.593Z,22.70
2022-12-01T02:42:02.565Z,22.50
2022-12-01T02:43:02.537Z,22.00
2022-12-01T02:44:02.511Z,22.20
2022-12-01T02:45:02.481Z,22.80
2022-12-01T02:46:02.511Z,22.50
2022-12-01T02:47:02.423Z,23.10
2022-12-01T02:48:02.398Z,22.80
2022-12-01T02:49:02.363Z,24.20
2022-12-01T02:50:02.338Z,23.60
2022-12-01T02:51:02.320Z,22.00
2022-12-01T02:52:02.285Z,23.30
2022-12-01T02:53:02.249Z,23.20
2022-12-01T02:54:02.226Z,22.30
2022-12-01T02:55:02.193Z,23.10
2022-12-01T02:56:02.225Z,23.70
2022-12-01T02:57:02.133Z,24.20
2022-12-01T02:58:02.107Z,24.50
2022-12-01T02:59:02.076Z,23.20
2022-12-01T03:00:02.050Z,24.20
2022-12-01T03:01:02.096Z,22.70
2022-12-01T03:02:02.007Z,23.50
2022-12-01T03:03:02.027Z,23.40
2022-12-01T03:04:01.934Z,23.40
2022-12-01T03:05:01.905Z,23.60
2022-12-01T03:06:01.881Z,23.40
2022-12-01T03:07:01.869Z,23.30
2022-12-01T03:08:01.941Z,23.90
2022-12-01T03:09:01.790Z,22.50
2022-12-01T03:10:01.777Z,23.80
2022-12-01T03:11:01.730Z,24.90
2022-12-01T03:12:01.728Z,25.70
2022-12-01T03:13:01.675Z,24.50
2022-12-01T03:14:01.647Z,23.80
2022-12-01T03:15:01.617Z,25.40
2022-12-01T03:16:01.691Z,25.70
2022-12-01T03:17:01.560Z,25.40
2022-12-01T03:18:01.534Z,25.30
2022-12-01T03:19:01.505Z,24.40
2022-12-01T03:20:01.479Z,27.20
2022-12-01T03:21:01.451Z,26.50
2022-12-01T03:22:01.418Z,27.10
2022-12-01T03:23:01.389Z,25.80
2022-12-01T03:24:01.363Z,25.00
2022-12-01T03:25:01.339Z,25.50
2022-12-01T03:26:01.306Z,26.30
2022-12-01T03:27:01.275Z,25.90
2022-12-01T03:28:20.834Z,25.50
2022-12-01T03:29:01.216Z,25.60
2022-12-01T03:30:01.187Z,26.70
2022-12-01T03:31:01.179Z,26.10
2022-12-01T03:32:01.128Z,25.00
2022-12-01T03:33:01.100Z,23.60
2022-12-01T03:34:01.072Z,24.30
2022-12-01T03:35:01.054Z,24.70
2022-12-01T03:36:01.043Z,24.90
2022-12-01T03:37:00.984Z,25.80
2022-12-01T03:38:00.959Z,25.40
2022-12-01T03:39:00.926Z,25.50
2022-12-01T03:40:01.408Z,24.30
2022-12-01T03:41:00.871Z,25.30
2022-12-01T03:42:00.846Z,23.90
2022-12-01T03:43:00.809Z,24.00
2022-12-01T03:44:00.806Z,23.50
2022-12-01T03:45:00.754Z,24.80
2022-12-01T03:46:00.816Z,25.20
2022-12-01T03:47:00.697Z,25.30
2022-12-01T03:48:00.670Z,24.00
2022-12-01T03:49:00.711Z,25.70
2022-12-01T03:50:00.608Z,25.00
2022-12-01T03:51:00.581Z,26.60
2022-12-01T03:52:00.553Z,27.20
2022-12-01T03:53:00.535Z,27.20
2022-12-01T03:54:00.497Z,28.10
2022-12-01T03:55:00.463Z,29.60
2022-12-01T03:56:00.435Z,28.90
2022-12-01T03:57:00.409Z,28.40
2022-12-01T03:58:00.381Z,29.70
2022-12-01T03:59:00.347Z,29.70
2022-12-01T04:00:00.342Z,31.10
2022-12-01T04:01:00.290Z,31.00
2022-12-01T04:02:00.381Z,30.10
2022-12-01T04:03:00.338Z,31.10
2022-12-01T04:04:00.204Z,31.00
2022-12-01T04:05:00.180Z,31.20
2022-12-01T04:06:00.153Z,32.90
2022-12-01T04:07:00.114Z,31.10
2022-12-01T04:08:00.217Z,30.30
2022-12-01T04:09:00.070Z,30.60
2022-12-01T04:10:00.036Z,30.50
2022-12-01T04:11:00.004Z,32.40
2022-12-01T04:11:59.975Z,32.80
2022-12-01T04:12:59.943Z,32.20
2022-12-01T04:13:59.915Z,32.50
2022-12-01T04:14:59.885Z,33.30
2022-12-01T04:15:59.944Z,32.70
2022-12-01T04:16:59.829Z,32.30
2022-12-01T04:17:59.799Z,33.90
2022-12-01T04:18:59.769Z,33.50
2022-12-01T04:19:59.782Z,33.80
2022-12-01T04:20:59.711Z,33.40
2022-12-01T04:21:59.686Z,32.90
2022-12-01T04:22:59.652Z,31.30
2022-12-01T04:23:59.624Z,32.00
2022-12-01T04:24:59.594Z,30.30
2022-12-01T04:25:59.566Z,31.10
2022-12-01T04:26:59.576Z,29.90
2022-12-01T04:27:59.508Z,31.40
2022-12-01T04:28:59.478Z,30.40
2022-12-01T04:29:59.450Z,32.10
2022-12-01T04:30:59.471Z,29.90
2022-12-01T04:31:59.433Z,30.30
2022-12-01T04:32:59.416Z,31.00
2022-12-01T04:33:59.334Z,30.60
2022-12-01T04:34:59.302Z,30.80
2022-12-01T04:35:59.276Z,30.50
2022-12-01T04:36:59.247Z,30.30
2022-12-01T04:37:59.218Z,29.90
2022-12-01T04:38:59.204Z,29.90
2022-12-01T04:39:59.161Z,28.80
2022-12-01T04:40:59.131Z,29.80
2022-12-01T04:41:59.105Z,29.10
2022-12-01T04:42:59.073Z,27.90
2022-12-01T04:43:59.048Z,27.30
2022-12-01T04:44:59.017Z,25.20
2022-12-01T04:45:58.986Z,25.50
2022-12-01T04:46:59.025Z,24.90
2022-12-01T04:47:58.947Z,25.60
2022-12-01T04:48:58.899Z,25.60
2022-12-01T04:49:58.874Z,24.40
2022-12-01T04:50:58.841Z,26.20
2022-12-01T04:51:58.813Z,26.30
2022-12-01T04:52:58.785Z,25.50
2022-12-01T04:53:58.756Z,25.30
2022-12-01T04:54:58.722Z,25.70
2022-12-01T04:55:58.695Z,24.30
2022-12-01T04:56:58.667Z,26.20
2022-12-01T04:57:58.715Z,23.10
2022-12-01T04:58:58.611Z,24.60
2022-12-01T04:59:58.579Z,25.10
2022-12-01T05:00:58.600Z,25.40
2022-12-01T05:01:58.662Z,26.40
2022-12-01T05:02:58.492Z,24.30
2022-12-01T05:03:58.491Z,27.40
2022-12-01T05:04:58.435Z,26.60
2022-12-01T05:05:58.408Z,25.10
2022-12-01T05:06:58.374Z,24.60
2022-12-01T05:07:58.441Z,25.80
2022-12-01T05:08:58.320Z,25.70
2022-12-01T05:09:58.289Z,24.40
2022-12-01T05:10:58.263Z,25.00
2022-12-01T05:11:58.234Z,24.60
2022-12-01T05:12:58.203Z,24.40
2022-12-01T05:13:58.172Z,24.90
2022-12-01T05:14:58.145Z,25.30
2022-12-01T05:15:58.165Z,25.50
2022-12-01T05:16:58.087Z,25.40
2022-12-01T05:17:58.055Z,25.80
2022-12-01T05:18:58.084Z,26.20
2022-12-01T05:19:58.012Z,26.20
2022-12-01T05:20:57.976Z,27.10
2022-12-01T05:21:57.943Z,26.40
2022-12-01T05:23:05.462Z,26.10
2022-12-01T05:23:57.881Z,25.30
2022-12-01T05:24:57.856Z,26.10
2022-12-01T05:25:57.822Z,26.00
2022-12-01T05:26:57.799Z,25.70
2022-12-01T05:27:57.768Z,26.10
2022-12-01T05:28:57.739Z,26.90
2022-12-01T05:29:57.709Z,26.30
2022-12-01T05:30:57.684Z,26.50
2022-12-01T05:31:57.711Z,25.10
2022-12-01T05:32:57.620Z,26.20
2022-12-01T05:33:57.591Z,27.00
2022-12-01T05:34:57.563Z,26.90
2022-12-01T05:35:57.554Z,28.20
2022-12-01T05:36:57.502Z,27.70
2022-12-01T05:37:57.474Z,27.20
2022-12-01T05:38:57.445Z,26.20
2022-12-01T05:39:57.506Z,26.70
2022-12-01T05:40:57.392Z,27.70
2022-12-01T05:41:57.359Z,24.70
2022-12-01T05:42:57.330Z,27.30
2022-12-01T05:43:57.300Z,26.10
2022-12-01T05:44:57.270Z,25.50
2022-12-01T05:45:57.446Z,27.00
2022-12-01T05:46:57.213Z,29.40
2022-12-01T05:47:57.182Z,27.10
2022-12-01T05:48:57.155Z,28.30
2022-12-01T05:50:02.128Z,25.90
2022-12-01T05:50:57.096Z,28.00
2022-12-01T05:51:57.086Z,27.40
2022-12-01T05:52:57.038Z,28.00
2022-12-01T05:53:57.100Z,27.60
2022-12-01T05:54:57.026Z,27.70
2022-12-01T05:55:57.008Z,28.50
2022-12-01T05:56:56.923Z,27.70
2022-12-01T05:57:56.951Z,27.00
2022-12-01T05:58:56.863Z,26.40
2022-12-01T05:59:56.832Z,27.00
2022-12-01T06:00:56.805Z,28.80
2022-12-01T06:01:56.867Z,27.80
2022-12-01T06:02:56.748Z,28.00
2022-12-01T06:03:56.757Z,27.60
2022-12-01T06:04:56.688Z,30.40
2022-12-01T06:05:56.660Z,28.00
2022-12-01T06:06:56.633Z,29.10
2022-12-01T06:07:56.682Z,30.80
2022-12-01T06:08:56.575Z,29.00
2022-12-01T06:09:56.541Z,30.10
2022-12-01T06:10:56.514Z,28.50
2022-12-01T06:11:56.481Z,28.20
2022-12-01T06:12:56.455Z,30.30
2022-12-01T06:13:56.424Z,29.10
2022-12-01T06:14:56.397Z,31.30
2022-12-01T06:15:56.366Z,32.30
2022-12-01T06:16:56.748Z,29.70
2022-12-01T06:17:56.308Z,27.90
2022-12-01T06:18:56.280Z,28.80
2022-12-01T06:19:56.252Z,26.90
2022-12-01T06:20:56.223Z,27.80
2022-12-01T06:21:56.251Z,28.50
2022-12-01T06:22:56.167Z,28.00
2022-12-01T06:23:56.152Z,28.90
2022-12-01T06:24:56.106Z,28.70
2022-12-01T06:25:56.075Z,28.30
2022-12-01T06:26:56.044Z,27.40
2022-12-01T06:27:56.015Z,27.00
2022-12-01T06:28:56.007Z,26.70
2022-12-01T06:29:55.962Z,26.10
2022-12-01T06:31:02.594Z,27.40
2022-12-01T06:31:55.948Z,27.40
2022-12-01T06:32:55.884Z,27.70
2022-12-01T06:33:55.841Z,27.60
2022-12-01T06:34:55.816Z,27.20
2022-12-01T06:35:55.784Z,25.80
2022-12-01T06:36:55.757Z,26.00
2022-12-01T06:37:55.728Z,27.10
2022-12-01T06:38:55.782Z,25.90
2022-12-01T06:39:55.690Z,25.10
2022-12-01T06:40:55.640Z,26.10
2022-12-01T06:41:55.610Z,26.70
2022-12-01T06:42:55.582Z,25.70
2022-12-01T06:43:55.553Z,26.00
2022-12-01T06:44:55.525Z,27.10
2022-12-01T06:46:01.200Z,26.10
2022-12-01T06:46:55.468Z,26.90
2022-12-01T06:47:55.435Z,26.80
2022-12-01T06:48:55.412Z,27.00
2022-12-01T06:49:55.379Z,26.70
2022-12-01T06:50:55.352Z,27.00
2022-12-01T06:51:55.322Z,26.10
2022-12-01T06:52:55.293Z,26.90
2022-12-01T06:53:55.263Z,27.50
2022-12-01T06:54:55.237Z,27.50
2022-12-01T06:55:55.221Z,28.20
2022-12-01T06:56:55.185Z,25.90
2022-12-01T06:57:55.155Z,26.20
2022-12-01T06:58:55.126Z,27.00
2022-12-01T06:59:55.088Z,27.50
2022-12-01T07:00:55.110Z,27.40
2022-12-01T07:01:55.119Z,27.80
2022-12-01T07:02:55.070Z,27.30
2022-12-01T07:03:54.972Z,26.70
2022-12-01T07:04:54.944Z,26.50
2022-12-01T07:05:54.917Z,26.80
2022-12-01T07:06:54.888Z,26.60
2022-12-01T07:07:59.339Z,28.20
2022-12-01T07:08:54.829Z,27.80
2022-12-01T07:09:54.803Z,28.20
2022-12-01T07:10:54.771Z,26.70
2022-12-01T07:11:54.759Z,27.40
2022-12-01T07:12:54.715Z,28.30
2022-12-01T07:13:54.682Z,28.20
2022-12-01T07:14:54.655Z,27.80
2022-12-01T07:15:54.628Z,28.90
2022-12-01T07:16:54.784Z,28.00
2022-12-01T07:17:54.568Z,27.80
2022-12-01T07:18:54.547Z,27.70
2022-12-01T07:19:54.512Z,26.80
2022-12-01T07:20:54.481Z,27.40
2022-12-01T07:21:54.450Z,27.70
2022-12-01T07:22:54.425Z,27.50
2022-12-01T07:23:54.392Z,25.90
2022-12-01T07:24:54.365Z,26.50
2022-12-01T07:25:54.334Z,28.90
2022-12-01T07:26:54.313Z,27.50
2022-12-01T07:27:54.296Z,26.50
2022-12-01T07:28:54.250Z,26.60
2022-12-01T07:29:54.221Z,27.50
2022-12-01T07:30:54.226Z,27.50
2022-12-01T07:31:54.157Z,26.10
2022-12-01T07:32:54.132Z,24.90
2022-12-01T07:33:54.101Z,27.30
2022-12-01T07:34:54.072Z,25.90
2022-12-01T07:35:54.044Z,27.10
2022-12-01T07:36:54.013Z,26.50
2022-12-01T07:37:53.985Z,26.50
2022-12-01T07:38:53.956Z,26.70
2022-12-01T07:39:53.927Z,26.60
2022-12-01T07:40:53.900Z,25.80
2022-12-01T07:41:53.867Z,26.10
2022-12-01T07:42:53.839Z,24.10
2022-12-01T07:43:53.831Z,25.40
2022-12-01T07:44:53.782Z,25.70
2022-12-01T07:45:53.866Z,26.60
2022-12-01T07:46:53.723Z,25.00
2022-12-01T07:47:53.695Z,24.80
2022-12-01T07:48:53.665Z,26.10
2022-12-01T07:49:53.634Z,25.30
2022-12-01T07:50:53.606Z,25.40
2022-12-01T07:51:53.573Z,24.80
2022-12-01T07:52:53.547Z,25.30
2022-12-01T07:53:53.517Z,24.70
2022-12-01T07:54:53.489Z,23.90
2022-12-01T07:55:53.457Z,24.40
2022-12-01T07:56:53.428Z,24.00
2022-12-01T07:57:53.398Z,24.20
2022-12-01T07:58:53.369Z,23.50
2022-12-01T07:59:53.358Z,24.10
2022-12-01T08:00:53.315Z,25.20
2022-12-01T08:01:53.384Z,24.90
2022-12-01T08:02:53.299Z,25.50
2022-12-01T08:03:53.222Z,25.30
2022-12-01T08:04:53.195Z,24.90
2022-12-01T08:05:53.165Z,25.90
2022-12-01T08:06:53.138Z,24.40
2022-12-01T08:07:53.158Z,24.70
2022-12-01T08:08:53.100Z,24.40
2022-12-01T08:09:53.049Z,26.30
2022-12-01T08:10:53.017Z,24.60
2022-12-01T08:11:52.989Z,24.90
2022-12-01T08:12:52.960Z,24.10
2022-12-01T08:13:52.930Z,25.30
2022-12-01T08:14:52.902Z,24.40
2022-12-01T08:15:52.936Z,25.30
2022-12-01T08:16:52.845Z,24.30
2022-12-01T08:17:52.815Z,23.80
2022-12-01T08:18:52.787Z,25.20
2022-12-01T08:19:52.756Z,25.40
2022-12-01T08:20:52.725Z,25.00
2022-12-01T08:21:52.696Z,24.00
2022-12-01T08:22:52.673Z,24.20
2022-12-01T08:23:52.639Z,24.40
2022-12-01T08:24:52.612Z,24.50
2022-12-01T08:25:52.595Z,25.50
2022-12-01T08:26:52.554Z,25.90
2022-12-01T08:27:52.523Z,25.20
2022-12-01T08:28:52.496Z,25.00
2022-12-01T08:29:52.465Z,24.30
2022-12-01T08:30:52.473Z,26.10
2022-12-01T08:31:52.423Z,24.50
2022-12-01T08:32:52.379Z,23.80
2022-12-01T08:33:52.350Z,24.60
2022-12-01T08:34:53.674Z,23.70
2022-12-01T08:35:52.287Z,23.90
2022-12-01T08:36:52.262Z,24.70
2022-12-01T08:37:52.230Z,23.70
2022-12-01T08:38:52.231Z,25.30
2022-12-01T08:39:52.284Z,24.50
2022-12-01T08:40:52.145Z,25.50
2022-12-01T08:41:52.114Z,25.40
2022-12-01T08:42:52.090Z,24.80
2022-12-01T08:44:00.147Z,24.60
2022-12-01T08:44:52.119Z,23.50
2022-12-01T08:45:51.999Z,25.50
2022-12-01T08:46:52.042Z,26.30
2022-12-01T08:47:51.960Z,26.40
2022-12-01T08:48:51.910Z,25.30
2022-12-01T08:49:51.991Z,27.30
2022-12-01T08:50:51.852Z,26.70
2022-12-01T08:51:51.824Z,26.00
2022-12-01T08:52:51.795Z,25.90
2022-12-01T08:53:51.765Z,26.40
2022-12-01T08:54:51.738Z,25.10
2022-12-01T08:55:51.708Z,25.60
2022-12-01T08:56:51.678Z,26.60
2022-12-01T08:57:51.651Z,25.80
2022-12-01T08:58:51.621Z,25.00
2022-12-01T08:59:51.934Z,25.50
2022-12-01T09:00:51.564Z,24.60
2022-12-01T09:01:51.632Z,24.80
2022-12-01T09:02:51.526Z,23.70
2022-12-01T09:03:51.496Z,25.40
2022-12-01T09:04:51.451Z,24.60
2022-12-01T09:05:51.422Z,25.10
2022-12-01T09:06:51.390Z,24.70
2022-12-01T09:07:51.432Z,25.00
2022-12-01T09:08:51.339Z,24.50
2022-12-01T09:09:51.518Z,24.00
2022-12-01T09:10:51.385Z,24.90
2022-12-01T09:11:51.252Z,25.20
2022-12-01T09:12:51.220Z,24.70
2022-12-01T09:13:54.604Z,23.60
2022-12-01T09:14:51.164Z,25.20
2022-12-01T09:15:51.151Z,24.10
2022-12-01T09:16:51.107Z,23.70
2022-12-01T09:17:51.081Z,23.50
2022-12-01T09:18:51.049Z,23.00
2022-12-01T09:19:51.596Z,23.20
2022-12-01T09:20:50.994Z,23.00
2022-12-01T09:21:50.965Z,22.90
2022-12-01T09:22:50.937Z,22.60
2022-12-01T09:23:50.909Z,21.90
2022-12-01T09:24:50.878Z,22.30
2022-12-01T09:25:50.854Z,23.60
2022-12-01T09:26:50.821Z,21.80
2022-12-01T09:27:50.795Z,22.30
2022-12-01T09:28:50.765Z,22.10
2022-12-01T09:29:50.987Z,21.90
2022-12-01T09:30:50.707Z,21.60
2022-12-01T09:31:50.704Z,20.40
2022-12-01T09:32:50.651Z,21.70
2022-12-01T09:33:50.622Z,22.70
2022-12-01T09:34:50.598Z,21.30
2022-12-01T09:35:50.588Z,20.90
2022-12-01T09:36:50.536Z,21.90
2022-12-01T09:37:50.509Z,21.00
2022-12-01T09:38:50.482Z,21.90
2022-12-01T09:39:50.742Z,21.90
2022-12-01T09:40:50.421Z,22.20
2022-12-01T09:41:50.395Z,20.70
2022-12-01T09:42:50.365Z,21.10
2022-12-01T09:43:50.340Z,21.30
2022-12-01T09:44:50.312Z,22.70
2022-12-01T09:45:50.284Z,20.30
2022-12-01T09:46:50.330Z,21.40
2022-12-01T09:47:50.224Z,21.50
2022-12-01T09:48:50.192Z,21.30
2022-12-01T09:49:50.418Z,21.40
2022-12-01T09:50:50.145Z,21.70
2022-12-01T09:51:50.128Z,20.80
2022-12-01T09:52:50.083Z,20.10
2022-12-01T09:53:50.054Z,21.10
2022-12-01T09:54:50.028Z,20.40
2022-12-01T09:55:49.995Z,20.90
2022-12-01T09:56:49.967Z,21.30
2022-12-01T09:57:49.938Z,20.60
2022-12-01T09:58:49.906Z,22.10
2022-12-01T09:59:50.171Z,22.10
2022-12-01T10:00:49.911Z,22.80
2022-12-01T10:01:49.887Z,22.40
2022-12-01T10:02:49.793Z,22.60
2022-12-01T10:03:49.767Z,23.30
2022-12-01T10:04:49.738Z,23.10
2022-12-01T10:06:18.474Z,23.30
2022-12-01T10:06:49.677Z,23.30
2022-12-01T10:07:49.729Z,24.80
2022-12-01T10:08:49.623Z,24.80
2022-12-01T10:09:49.834Z,24.90
2022-12-01T10:10:49.563Z,25.40
2022-12-01T10:11:49.537Z,24.60
2022-12-01T10:12:49.507Z,25.00
2022-12-01T10:13:49.482Z,25.50
2022-12-01T10:14:49.459Z,25.40
2022-12-01T10:15:49.422Z,26.90
2022-12-01T10:16:49.395Z,26.40
2022-12-01T10:17:49.367Z,26.70
2022-12-01T10:18:49.337Z,26.20
2022-12-01T10:19:49.593Z,26.20
2022-12-01T10:20:49.280Z,27.10
2022-12-01T10:21:49.256Z,27.30
2022-12-01T10:22:49.647Z,26.20
2022-12-01T10:23:49.282Z,26.40
2022-12-01T10:24:49.192Z,26.90
2022-12-01T10:25:49.158Z,26.00
2022-12-01T10:26:49.111Z,27.20
2022-12-01T10:27:49.142Z,26.90
2022-12-01T10:28:49.133Z,27.50
2022-12-01T10:29:49.579Z,30.20
2022-12-01T10:30:48.997Z,29.20
2022-12-01T10:31:49.072Z,28.00
2022-12-01T10:32:49.085Z,29.10
2022-12-01T10:33:49.036Z,28.20
2022-12-01T10:34:49.002Z,29.00
2022-12-01T10:35:48.918Z,30.10
2022-12-01T10:36:48.965Z,29.20
2022-12-01T10:37:48.960Z,29.80
2022-12-01T10:38:48.970Z,30.50
2022-12-01T10:39:49.288Z,29.90
2022-12-01T10:40:48.779Z,31.90
2022-12-01T10:41:48.901Z,30.70
2022-12-01T10:42:48.771Z,31.10
2022-12-01T10:43:48.723Z,30.40
2022-12-01T10:44:48.792Z,32.40
2022-12-01T10:45:48.791Z,33.60
2022-12-01T10:46:48.624Z,33.10
2022-12-01T10:47:48.610Z,32.80
2022-12-01T10:48:48.505Z,33.70
2022-12-01T10:49:49.001Z,33.20
2022-12-01T10:50:48.452Z,33.60
2022-12-01T10:51:48.421Z,33.10
2022-12-01T10:52:48.386Z,31.80
2022-12-01T10:53:48.363Z,34.20
2022-12-01T10:54:48.392Z,34.30
2022-12-01T10:55:48.308Z,32.50
2022-12-01T10:56:48.305Z,33.80
2022-12-01T10:57:48.234Z,32.80
2022-12-01T10:58:48.203Z,33.20
2022-12-01T10:59:48.478Z,33.10
2022-12-01T11:01:03.791Z,33.60
2022-12-01T11:01:48.305Z,34.00
2022-12-01T11:02:48.328Z,33.20
2022-12-01T11:03:48.127Z,34.60
2022-12-01T11:04:48.035Z,34.80
2022-12-01T11:05:48.008Z,33.20
2022-12-01T11:06:47.981Z,32.40
2022-12-01T11:07:48.062Z,34.50
2022-12-01T11:08:47.930Z,33.80
2022-12-01T11:09:48.208Z,33.20
2022-12-01T11:10:47.867Z,33.50
2022-12-01T11:11:47.867Z,34.40
2022-12-01T11:12:47.972Z,32.20
2022-12-01T11:13:48.823Z,34.90
2022-12-01T11:14:47.835Z,34.10
2022-12-01T11:15:47.742Z,35.00
2022-12-01T11:16:47.870Z,35.30
2022-12-01T11:17:47.749Z,34.60
2022-12-01T11:18:47.682Z,33.40
2022-12-01T11:19:47.966Z,33.30
2022-12-01T11:20:47.682Z,33.80
2022-12-01T11:21:47.557Z,34.70
2022-12-01T11:22:47.563Z,34.10
2022-12-01T11:23:47.500Z,34.60
2022-12-01T11:24:47.467Z,34.40
2022-12-01T11:25:47.443Z,33.90
2022-12-01T11:26:47.410Z,33.70
2022-12-01T11:27:47.402Z,34.90
2022-12-01T11:28:47.352Z,36.20
2022-12-01T11:29:47.597Z,32.40
2022-12-01T11:30:49.283Z,35.90
2022-12-01T11:31:47.390Z,37.50
2022-12-01T11:32:47.240Z,36.30
2022-12-01T11:33:47.212Z,33.30
2022-12-01T11:34:47.463Z,33.90
2022-12-01T11:35:47.159Z,35.30
2022-12-01T11:36:47.128Z,33.40
2022-12-01T11:38:13.221Z,33.20
2022-12-01T11:38:47.071Z,35.50
2022-12-01T11:39:47.599Z,35.60
2022-12-01T11:40:47.031Z,35.50
2022-12-01T11:41:46.985Z,33.70
2022-12-01T11:42:46.959Z,35.70
2022-12-01T11:43:56.707Z,34.60
2022-12-01T11:44:51.820Z,34.60
2022-12-01T11:45:46.927Z,34.00
2022-12-01T11:46:55.830Z,34.50
2022-12-01T11:47:46.814Z,34.60
2022-12-01T11:48:46.785Z,34.60
2022-12-01T11:49:47.454Z,36.40
2022-12-01T11:50:46.728Z,34.50
2022-12-01T11:51:46.701Z,34.00
2022-12-01T11:52:46.672Z,34.90
2022-12-01T11:53:46.649Z,33.80
2022-12-01T11:54:46.615Z,35.50
2022-12-01T11:55:46.587Z,35.00
2022-12-01T11:56:46.734Z,36.50
2022-12-01T11:57:46.532Z,34.40
2022-12-01T11:58:46.601Z,36.00
2022-12-01T11:59:46.503Z,35.30
2022-12-01T12:00:46.445Z,35.60
2022-12-01T12:01:46.419Z,32.80
2022-12-01T12:02:46.451Z,35.80
2022-12-01T12:03:46.424Z,32.90
2022-12-01T12:04:46.338Z,35.00
2022-12-01T12:05:46.307Z,35.50
2022-12-01T12:06:46.272Z,35.90
2022-12-01T12:07:46.351Z,34.10
2022-12-01T12:08:46.297Z,35.90
2022-12-01T12:09:46.284Z,33.10
2022-12-01T12:10:46.261Z,33.90
2022-12-01T12:11:46.137Z,33.40
2022-12-01T12:12:46.106Z,34.30
2022-12-01T12:13:46.090Z,33.90
2022-12-01T12:14:46.079Z,34.00
2022-12-01T12:15:46.102Z,34.40
2022-12-01T12:16:46.044Z,34.00
2022-12-01T12:17:46.039Z,33.60
2022-12-01T12:18:45.938Z,34.60
2022-12-01T12:20:07.056Z,34.60
2022-12-01T12:20:45.901Z,35.00
2022-12-01T12:21:45.854Z,34.00
2022-12-01T12:22:47.681Z,34.60
2022-12-01T12:23:45.803Z,32.60
2022-12-01T12:24:45.774Z,35.60
2022-12-01T12:25:45.752Z,33.00
2022-12-01T12:26:45.730Z,34.60
2022-12-01T12:27:45.689Z,33.90
2022-12-01T12:28:45.663Z,35.10
2022-12-01T12:29:45.631Z,34.90
2022-12-01T12:30:45.645Z,34.90
2022-12-01T12:31:45.596Z,35.00
2022-12-01T12:32:45.547Z,34.30
2022-12-01T12:33:45.520Z,34.00
2022-12-01T12:34:45.505Z,35.10
2022-12-01T12:35:45.474Z,35.20
2022-12-01T12:36:45.436Z,33.30
2022-12-01T12:37:45.410Z,34.50
2022-12-01T12:38:45.484Z,34.90
2022-12-01T12:39:45.408Z,33.70
2022-12-01T12:40:45.412Z,33.80
2022-12-01T12:41:45.444Z,35.30
2022-12-01T12:42:45.393Z,33.50
2022-12-01T12:43:45.356Z,35.30
2022-12-01T12:44:45.293Z,34.00
2022-12-01T12:45:45.294Z,34.20
2022-12-01T12:46:45.374Z,35.30
2022-12-01T12:47:45.253Z,32.70
2022-12-01T12:49:03.869Z,32.10
2022-12-01T12:49:45.486Z,32.40
2022-12-01T12:50:45.183Z,33.00
2022-12-01T12:51:45.017Z,33.20